sensor_id;sensor_type;location;lat;lon;timestamp;temperature;humidity
23251;DHT22;11794;49.730;10.088;2023-07-13T00:01:25;20.30;99.90
23251;DHT22;11794;49.730;10.088;2023-07-13T00:03:50;20.30;99.90
23251;DHT22;11794;49.730;10.088;2023-07-13T00:06:16;20.20;99.90
23251;DHT22;11794;49.730;10.088;2023-07-13T00:08:41;20.10;99.90
23251;DHT22;11794;49.730;10.088;2023-07-13T00:11:07;20.00;99.90
23251;DHT22;11794;49.730;10.088;2023-07-13T00:13:33;19.90;99.90
23251;DHT22;11794;49.730;10.088;2023-07-13T00:15:58;19.90;99.90
23251;DHT22;11794;49.730;10.088;2023-07-13T00:18:24;19.90;99.90
23251;DHT22;11794;49.730;10.088;2023-07-13T00:20:49;19.90;99.90
23251;DHT22;11794;49.730;10.088;2023-07-13T00:23:15;20.00;99.90
23251;DHT22;11794;49.730;10.088;2023-07-13T00:25:42;20.00;99.90
23251;DHT22;11794;49.730;10.088;2023-07-13T00:28:07;19.90;99.90
23251;DHT22;11794;49.730;10.088;2023-07-13T00:30:33;19.80;99.90
23251;DHT22;11794;49.730;10.088;2023-07-13T00:32:58;19.80;99.90
23251;DHT22;11794;49.730;10.088;2023-07-13T00:35:26;19.70;99.90
23251;DHT22;11794;49.730;10.088;2023-07-13T00:37:52;19.70;99.90
23251;DHT22;11794;49.730;10.088;2023-07-13T00:40:18;19.60;99.90
23251;DHT22;11794;49.730;10.088;2023-07-13T00:42:44;19.60;99.90
23251;DHT22;11794;49.730;10.088;2023-07-13T00:47:41;19.30;99.90
23251;DHT22;11794;49.730;10.088;2023-07-13T00:50:10;19.20;99.90
23251;DHT22;11794;49.730;10.088;2023-07-13T00:52:40;19.10;99.90
23251;DHT22;11794;49.730;10.088;2023-07-13T00:55:07;19.00;99.90
23251;DHT22;11794;49.730;10.088;2023-07-13T00:57:34;19.00;99.90
23251;DHT22;11794;49.730;10.088;2023-07-13T01:00:04;18.90;99.90
23251;DHT22;11794;49.730;10.088;2023-07-13T01:02:32;18.90;99.90
23251;DHT22;11794;49.730;10.088;2023-07-13T01:04:58;18.90;99.90
23251;DHT22;11794;49.730;10.088;2023-07-13T01:07:24;18.80;99.90
23251;DHT22;11794;49.730;10.088;2023-07-13T01:09:50;18.80;99.90
23251;DHT22;11794;49.730;10.088;2023-07-13T01:12:15;18.80;99.90
23251;DHT22;11794;49.730;10.088;2023-07-13T01:14:41;18.70;99.90
23251;DHT22;11794;49.730;10.088;2023-07-13T01:17:10;18.80;99.90
23251;DHT22;11794;49.730;10.088;2023-07-13T01:19:43;18.80;99.90
23251;DHT22;11794;49.730;10.088;2023-07-13T01:22:12;18.80;99.90
23251;DHT22;11794;49.730;10.088;2023-07-13T01:24:39;18.80;99.90
23251;DHT22;11794;49.730;10.088;2023-07-13T01:27:06;18.70;99.90
23251;DHT22;11794;49.730;10.088;2023-07-13T01:29:34;18.70;99.90
23251;DHT22;11794;49.730;10.088;2023-07-13T01:32:00;18.70;99.90
23251;DHT22;11794;49.730;10.088;2023-07-13T01:34:27;18.70;99.90
23251;DHT22;11794;49.730;10.088;2023-07-13T01:36:52;18.60;99.90
23251;DHT22;11794;49.730;10.088;2023-07-13T01:39:22;18.60;99.90
23251;DHT22;11794;49.730;10.088;2023-07-13T01:41:48;18.60;99.90
23251;DHT22;11794;49.730;10.088;2023-07-13T01:44:14;18.60;99.90
23251;DHT22;11794;49.730;10.088;2023-07-13T01:46:39;18.60;99.90
23251;DHT22;11794;49.730;10.088;2023-07-13T01:49:05;18.60;99.90
23251;DHT22;11794;49.730;10.088;2023-07-13T01:51:30;18.60;99.90
23251;DHT22;11794;49.730;10.088;2023-07-13T01:53:56;18.50;99.90
23251;DHT22;11794;49.730;10.088;2023-07-13T01:56:22;18.50;99.90
23251;DHT22;11794;49.730;10.088;2023-07-13T01:58:47;18.50;99.90
23251;DHT22;11794;49.730;10.088;2023-07-13T02:01:13;18.40;99.90
23251;DHT22;11794;49.730;10.088;2023-07-13T02:03:39;18.40;99.90
23251;DHT22;11794;49.730;10.088;2023-07-13T02:06:04;18.40;99.90
23251;DHT22;11794;49.730;10.088;2023-07-13T02:08:31;18.30;99.90
23251;DHT22;11794;49.730;10.088;2023-07-13T02:10:57;18.30;99.90
23251;DHT22;11794;49.730;10.088;2023-07-13T02:13:22;18.20;99.90
23251;DHT22;11794;49.730;10.088;2023-07-13T02:15:51;18.20;99.90
23251;DHT22;11794;49.730;10.088;2023-07-13T02:18:16;18.20;99.90
23251;DHT22;11794;49.730;10.088;2023-07-13T02:20:43;18.20;99.90
23251;DHT22;11794;49.730;10.088;2023-07-13T02:23:09;18.20;99.90
23251;DHT22;11794;49.730;10.088;2023-07-13T02:25:34;18.20;99.90
23251;DHT22;11794;49.730;10.088;2023-07-13T02:28:00;18.10;99.90
23251;DHT22;11794;49.730;10.088;2023-07-13T02:30:26;18.10;99.90
23251;DHT22;11794;49.730;10.088;2023-07-13T02:32:51;18.00;99.90
23251;DHT22;11794;49.730;10.088;2023-07-13T02:35:17;18.00;99.90
23251;DHT22;11794;49.730;10.088;2023-07-13T02:37:42;17.90;99.90
23251;DHT22;11794;49.730;10.088;2023-07-13T02:40:08;17.80;99.90
23251;DHT22;11794;49.730;10.088;2023-07-13T02:42:34;17.80;99.90
23251;DHT22;11794;49.730;10.088;2023-07-13T02:45:00;17.70;99.90
23251;DHT22;11794;49.730;10.088;2023-07-13T02:47:25;17.70;99.90
23251;DHT22;11794;49.730;10.088;2023-07-13T02:49:52;17.60;99.90
23251;DHT22;11794;49.730;10.088;2023-07-13T02:52:17;17.60;99.90
23251;DHT22;11794;49.730;10.088;2023-07-13T02:54:43;17.60;99.90
23251;DHT22;11794;49.730;10.088;2023-07-13T02:57:08;17.60;99.90
23251;DHT22;11794;49.730;10.088;2023-07-13T02:59:34;17.60;99.90
23251;DHT22;11794;49.730;10.088;2023-07-13T03:02:01;17.60;99.90
23251;DHT22;11794;49.730;10.088;2023-07-13T03:04:27;17.60;99.90
23251;DHT22;11794;49.730;10.088;2023-07-13T03:06:52;17.50;99.90
23251;DHT22;11794;49.730;10.088;2023-07-13T03:09:18;17.60;99.90
23251;DHT22;11794;49.730;10.088;2023-07-13T03:11:43;17.60;99.90
23251;DHT22;11794;49.730;10.088;2023-07-13T03:14:09;17.50;99.90
23251;DHT22;11794;49.730;10.088;2023-07-13T03:16:35;17.50;99.90
23251;DHT22;11794;49.730;10.088;2023-07-13T03:19:00;17.50;99.90
23251;DHT22;11794;49.730;10.088;2023-07-13T03:21:26;17.50;99.90
23251;DHT22;11794;49.730;10.088;2023-07-13T03:23:51;17.50;99.90
23251;DHT22;11794;49.730;10.088;2023-07-13T03:26:18;17.40;99.90
23251;DHT22;11794;49.730;10.088;2023-07-13T03:28:44;17.40;99.90
23251;DHT22;11794;49.730;10.088;2023-07-13T03:31:16;17.40;99.90
23251;DHT22;11794;49.730;10.088;2023-07-13T03:33:42;17.30;99.90
23251;DHT22;11794;49.730;10.088;2023-07-13T03:36:15;17.40;99.90
23251;DHT22;11794;49.730;10.088;2023-07-13T03:38:45;17.30;99.90
23251;DHT22;11794;49.730;10.088;2023-07-13T03:41:11;17.20;99.90
23251;DHT22;11794;49.730;10.088;2023-07-13T03:43:37;17.20;99.90
23251;DHT22;11794;49.730;10.088;2023-07-13T03:46:02;17.20;99.90
23251;DHT22;11794;49.730;10.088;2023-07-13T03:48:28;17.20;99.90
23251;DHT22;11794;49.730;10.088;2023-07-13T03:50:53;17.20;99.90
23251;DHT22;11794;49.730;10.088;2023-07-13T03:53:19;17.20;99.90
23251;DHT22;11794;49.730;10.088;2023-07-13T03:55:44;17.10;99.90
23251;DHT22;11794;49.730;10.088;2023-07-13T04:00:53;17.00;99.90
23251;DHT22;11794;49.730;10.088;2023-07-13T04:03:18;16.90;99.90
23251;DHT22;11794;49.730;10.088;2023-07-13T04:05:44;17.00;99.90
23251;DHT22;11794;49.730;10.088;2023-07-13T04:08:09;17.00;99.90
23251;DHT22;11794;49.730;10.088;2023-07-13T04:10:35;17.00;99.90
23251;DHT22;11794;49.730;10.088;2023-07-13T04:13:00;17.00;99.90
23251;DHT22;11794;49.730;10.088;2023-07-13T04:15:29;17.00;99.90
23251;DHT22;11794;49.730;10.088;2023-07-13T04:17:54;17.00;99.90
23251;DHT22;11794;49.730;10.088;2023-07-13T04:20:20;17.00;99.90
23251;DHT22;11794;49.730;10.088;2023-07-13T04:22:46;17.10;99.90
23251;DHT22;11794;49.730;10.088;2023-07-13T04:25:11;17.00;99.90
23251;DHT22;11794;49.730;10.088;2023-07-13T04:27:37;17.10;99.90
23251;DHT22;11794;49.730;10.088;2023-07-13T04:30:03;17.20;99.90
23251;DHT22;11794;49.730;10.088;2023-07-13T04:32:29;17.30;99.90
23251;DHT22;11794;49.730;10.088;2023-07-13T04:34:54;17.40;99.90
23251;DHT22;11794;49.730;10.088;2023-07-13T04:37:21;17.50;99.90
23251;DHT22;11794;49.730;10.088;2023-07-13T04:39:46;17.60;99.90
23251;DHT22;11794;49.730;10.088;2023-07-13T04:42:12;17.70;99.90
23251;DHT22;11794;49.730;10.088;2023-07-13T04:44:37;17.80;99.90
23251;DHT22;11794;49.730;10.088;2023-07-13T04:47:03;17.90;99.90
23251;DHT22;11794;49.730;10.088;2023-07-13T04:49:29;18.00;99.90
23251;DHT22;11794;49.730;10.088;2023-07-13T04:51:54;18.10;99.90
23251;DHT22;11794;49.730;10.088;2023-07-13T04:54:20;18.20;99.90
23251;DHT22;11794;49.730;10.088;2023-07-13T04:56:47;18.30;99.90
23251;DHT22;11794;49.730;10.088;2023-07-13T04:59:12;18.40;99.90
23251;DHT22;11794;49.730;10.088;2023-07-13T05:01:38;18.50;99.90
23251;DHT22;11794;49.730;10.088;2023-07-13T05:04:03;18.60;99.90
23251;DHT22;11794;49.730;10.088;2023-07-13T05:06:29;18.70;99.90
23251;DHT22;11794;49.730;10.088;2023-07-13T05:08:56;18.80;99.90
23251;DHT22;11794;49.730;10.088;2023-07-13T05:11:21;18.80;99.90
23251;DHT22;11794;49.730;10.088;2023-07-13T05:13:47;18.80;99.90
23251;DHT22;11794;49.730;10.088;2023-07-13T05:16:12;18.70;99.90
23251;DHT22;11794;49.730;10.088;2023-07-13T05:18:38;18.60;99.90
23251;DHT22;11794;49.730;10.088;2023-07-13T05:21:06;18.60;99.90
23251;DHT22;11794;49.730;10.088;2023-07-13T05:23:33;18.70;99.90
23251;DHT22;11794;49.730;10.088;2023-07-13T05:25:59;18.70;99.90
23251;DHT22;11794;49.730;10.088;2023-07-13T05:28:26;18.70;99.90
23251;DHT22;11794;49.730;10.088;2023-07-13T05:30:52;18.60;99.90
23251;DHT22;11794;49.730;10.088;2023-07-13T05:33:19;18.60;99.90
23251;DHT22;11794;49.730;10.088;2023-07-13T05:35:45;18.50;99.90
23251;DHT22;11794;49.730;10.088;2023-07-13T05:38:10;18.50;99.90
23251;DHT22;11794;49.730;10.088;2023-07-13T05:40:36;18.60;99.90
23251;DHT22;11794;49.730;10.088;2023-07-13T05:43:01;18.80;99.90
23251;DHT22;11794;49.730;10.088;2023-07-13T05:45:27;18.90;99.90
23251;DHT22;11794;49.730;10.088;2023-07-13T05:47:52;18.90;99.90
23251;DHT22;11794;49.730;10.088;2023-07-13T05:50:18;19.00;99.90
23251;DHT22;11794;49.730;10.088;2023-07-13T05:52:43;19.10;99.90
23251;DHT22;11794;49.730;10.088;2023-07-13T05:55:09;19.20;99.90
23251;DHT22;11794;49.730;10.088;2023-07-13T05:57:34;19.30;99.90
23251;DHT22;11794;49.730;10.088;2023-07-13T06:00:00;19.40;99.90
23251;DHT22;11794;49.730;10.088;2023-07-13T06:02:25;19.50;99.90
23251;DHT22;11794;49.730;10.088;2023-07-13T06:04:52;19.60;99.90
23251;DHT22;11794;49.730;10.088;2023-07-13T06:07:17;19.60;99.90
23251;DHT22;11794;49.730;10.088;2023-07-13T06:09:43;19.70;99.90
23251;DHT22;11794;49.730;10.088;2023-07-13T06:12:08;19.80;99.90
23251;DHT22;11794;49.730;10.088;2023-07-13T06:14:34;19.80;99.90
23251;DHT22;11794;49.730;10.088;2023-07-13T06:17:00;19.90;99.90
23251;DHT22;11794;49.730;10.088;2023-07-13T06:19:25;20.00;99.90
23251;DHT22;11794;49.730;10.088;2023-07-13T06:21:51;20.10;99.90
23251;DHT22;11794;49.730;10.088;2023-07-13T06:24:16;20.20;99.90
23251;DHT22;11794;49.730;10.088;2023-07-13T06:26:42;20.30;99.90
23251;DHT22;11794;49.730;10.088;2023-07-13T06:29:07;20.40;99.90
23251;DHT22;11794;49.730;10.088;2023-07-13T06:31:33;20.40;99.90
23251;DHT22;11794;49.730;10.088;2023-07-13T06:33:58;20.30;99.90
23251;DHT22;11794;49.730;10.088;2023-07-13T06:36:24;20.20;99.90
23251;DHT22;11794;49.730;10.088;2023-07-13T06:38:49;20.40;99.90
23251;DHT22;11794;49.730;10.088;2023-07-13T06:41:15;20.60;99.90
23251;DHT22;11794;49.730;10.088;2023-07-13T06:43:40;20.80;99.90
23251;DHT22;11794;49.730;10.088;2023-07-13T06:46:06;20.80;99.90
23251;DHT22;11794;49.730;10.088;2023-07-13T06:48:32;20.90;99.90
23251;DHT22;11794;49.730;10.088;2023-07-13T06:50:57;21.00;99.90
23251;DHT22;11794;49.730;10.088;2023-07-13T06:53:24;21.00;99.90
23251;DHT22;11794;49.730;10.088;2023-07-13T06:55:50;21.00;99.90
23251;DHT22;11794;49.730;10.088;2023-07-13T06:58:17;21.20;99.90
23251;DHT22;11794;49.730;10.088;2023-07-13T07:00:43;21.30;99.90
23251;DHT22;11794;49.730;10.088;2023-07-13T07:03:09;21.40;99.80
23251;DHT22;11794;49.730;10.088;2023-07-13T07:05:35;21.40;99.30
23251;DHT22;11794;49.730;10.088;2023-07-13T07:08:00;21.40;99.90
23251;DHT22;11794;49.730;10.088;2023-07-13T07:10:30;21.50;99.60
23251;DHT22;11794;49.730;10.088;2023-07-13T07:12:57;21.50;99.50
23251;DHT22;11794;49.730;10.088;2023-07-13T07:15:22;21.60;99.30
23251;DHT22;11794;49.730;10.088;2023-07-13T07:17:48;21.80;98.50
23251;DHT22;11794;49.730;10.088;2023-07-13T07:20:13;21.80;98.20
23251;DHT22;11794;49.730;10.088;2023-07-13T07:22:39;21.80;98.50
23251;DHT22;11794;49.730;10.088;2023-07-13T07:25:05;21.80;98.10
23251;DHT22;11794;49.730;10.088;2023-07-13T07:27:30;22.20;98.40
23251;DHT22;11794;49.730;10.088;2023-07-13T07:29:56;22.30;97.10
23251;DHT22;11794;49.730;10.088;2023-07-13T07:32:23;22.50;97.00
23251;DHT22;11794;49.730;10.088;2023-07-13T07:34:49;22.70;95.60
23251;DHT22;11794;49.730;10.088;2023-07-13T07:37:14;22.90;95.80
23251;DHT22;11794;49.730;10.088;2023-07-13T07:39:40;23.40;95.20
23251;DHT22;11794;49.730;10.088;2023-07-13T07:42:06;23.70;94.70
23251;DHT22;11794;49.730;10.088;2023-07-13T07:44:32;24.00;93.20
23251;DHT22;11794;49.730;10.088;2023-07-13T07:46:58;24.00;93.50
23251;DHT22;11794;49.730;10.088;2023-07-13T07:49:24;24.00;93.40
23251;DHT22;11794;49.730;10.088;2023-07-13T07:51:50;24.40;92.40
23251;DHT22;11794;49.730;10.088;2023-07-13T07:54:15;24.70;92.40
23251;DHT22;11794;49.730;10.088;2023-07-13T07:56:41;25.00;91.90
23251;DHT22;11794;49.730;10.088;2023-07-13T07:59:07;25.40;91.30
23251;DHT22;11794;49.730;10.088;2023-07-13T08:01:32;25.90;90.40
23251;DHT22;11794;49.730;10.088;2023-07-13T08:03:58;25.60;90.90
23251;DHT22;11794;49.730;10.088;2023-07-13T08:06:23;25.70;90.60
23251;DHT22;11794;49.730;10.088;2023-07-13T08:08:49;26.00;90.30
23251;DHT22;11794;49.730;10.088;2023-07-13T08:11:17;26.40;90.30
23251;DHT22;11794;49.730;10.088;2023-07-13T08:13:43;26.60;88.10
23251;DHT22;11794;49.730;10.088;2023-07-13T08:16:08;26.50;87.80
23251;DHT22;11794;49.730;10.088;2023-07-13T08:18:34;26.90;87.80
23251;DHT22;11794;49.730;10.088;2023-07-13T08:21:07;26.90;89.20
23251;DHT22;11794;49.730;10.088;2023-07-13T08:23:33;27.10;89.00
23251;DHT22;11794;49.730;10.088;2023-07-13T08:25:59;27.80;84.70
23251;DHT22;11794;49.730;10.088;2023-07-13T08:28:27;28.20;82.10
23251;DHT22;11794;49.730;10.088;2023-07-13T08:30:53;28.60;81.30
23251;DHT22;11794;49.730;10.088;2023-07-13T08:33:20;28.70;81.20
23251;DHT22;11794;49.730;10.088;2023-07-13T08:35:49;28.90;80.10
23251;DHT22;11794;49.730;10.088;2023-07-13T08:38:15;28.80;78.80
23251;DHT22;11794;49.730;10.088;2023-07-13T08:40:41;28.90;80.20
23251;DHT22;11794;49.730;10.088;2023-07-13T08:43:17;28.90;79.60
23251;DHT22;11794;49.730;10.088;2023-07-13T08:45:51;29.10;79.10
23251;DHT22;11794;49.730;10.088;2023-07-13T08:48:22;29.60;78.40
23251;DHT22;11794;49.730;10.088;2023-07-13T08:51:02;29.40;77.30
23251;DHT22;11794;49.730;10.088;2023-07-13T08:53:38;29.10;78.30
23251;DHT22;11794;49.730;10.088;2023-07-13T08:56:11;29.00;78.30
23251;DHT22;11794;49.730;10.088;2023-07-13T08:58:39;29.20;78.40
23251;DHT22;11794;49.730;10.088;2023-07-13T09:03:46;29.30;76.90
23251;DHT22;11794;49.730;10.088;2023-07-13T09:06:14;28.80;78.50
23251;DHT22;11794;49.730;10.088;2023-07-13T09:11:38;28.90;78.80
23251;DHT22;11794;49.730;10.088;2023-07-13T09:14:21;29.50;78.10
23251;DHT22;11794;49.730;10.088;2023-07-13T09:16:50;29.60;77.50
23251;DHT22;11794;49.730;10.088;2023-07-13T09:19:21;29.50;75.60
23251;DHT22;11794;49.730;10.088;2023-07-13T09:21:49;29.00;76.20
23251;DHT22;11794;49.730;10.088;2023-07-13T09:24:27;28.80;76.70
23251;DHT22;11794;49.730;10.088;2023-07-13T09:26:54;29.40;77.60
23251;DHT22;11794;49.730;10.088;2023-07-13T09:29:28;29.90;76.10
23251;DHT22;11794;49.730;10.088;2023-07-13T09:31:57;30.30;76.20
23251;DHT22;11794;49.730;10.088;2023-07-13T09:34:25;30.90;73.70
23251;DHT22;11794;49.730;10.088;2023-07-13T09:36:51;30.70;73.20
23251;DHT22;11794;49.730;10.088;2023-07-13T09:39:29;30.80;72.90
23251;DHT22;11794;49.730;10.088;2023-07-13T09:42:11;31.30;74.00
23251;DHT22;11794;49.730;10.088;2023-07-13T09:45:00;31.50;71.70
23251;DHT22;11794;49.730;10.088;2023-07-13T09:47:33;31.60;71.50
23251;DHT22;11794;49.730;10.088;2023-07-13T09:50:06;32.30;71.80
23251;DHT22;11794;49.730;10.088;2023-07-13T09:52:46;32.30;69.60
23251;DHT22;11794;49.730;10.088;2023-07-13T09:55:35;31.80;70.00
23251;DHT22;11794;49.730;10.088;2023-07-13T09:58:14;30.70;70.00
23251;DHT22;11794;49.730;10.088;2023-07-13T10:00:41;30.30;72.60
23251;DHT22;11794;49.730;10.088;2023-07-13T10:03:18;30.90;72.10
23251;DHT22;11794;49.730;10.088;2023-07-13T10:05:46;31.90;71.20
23251;DHT22;11794;49.730;10.088;2023-07-13T10:08:21;32.50;69.90
23251;DHT22;11794;49.730;10.088;2023-07-13T10:10:53;32.50;68.30
23251;DHT22;11794;49.730;10.088;2023-07-13T10:13:34;32.70;69.40
23251;DHT22;11794;49.730;10.088;2023-07-13T10:16:03;32.90;69.30
23251;DHT22;11794;49.730;10.088;2023-07-13T10:18:38;33.00;66.60
23251;DHT22;11794;49.730;10.088;2023-07-13T10:21:13;33.10;67.10
23251;DHT22;11794;49.730;10.088;2023-07-13T10:23:39;33.20;66.80
23251;DHT22;11794;49.730;10.088;2023-07-13T10:26:07;33.10;67.20
23251;DHT22;11794;49.730;10.088;2023-07-13T10:28:38;33.10;65.90
23251;DHT22;11794;49.730;10.088;2023-07-13T10:31:10;32.90;66.80
23251;DHT22;11794;49.730;10.088;2023-07-13T10:33:37;32.50;67.00
23251;DHT22;11794;49.730;10.088;2023-07-13T10:36:17;32.50;67.60
23251;DHT22;11794;49.730;10.088;2023-07-13T10:38:46;32.10;66.70
23251;DHT22;11794;49.730;10.088;2023-07-13T10:41:18;31.10;68.90
23251;DHT22;11794;49.730;10.088;2023-07-13T10:43:47;30.50;68.70
23251;DHT22;11794;49.730;10.088;2023-07-13T10:46:18;29.80;70.90
23251;DHT22;11794;49.730;10.088;2023-07-13T10:48:51;29.20;71.40
23251;DHT22;11794;49.730;10.088;2023-07-13T10:51:18;28.70;72.60
23251;DHT22;11794;49.730;10.088;2023-07-13T10:53:46;28.20;73.20
23251;DHT22;11794;49.730;10.088;2023-07-13T10:58:42;27.50;76.00
23251;DHT22;11794;49.730;10.088;2023-07-13T11:01:12;27.60;75.30
23251;DHT22;11794;49.730;10.088;2023-07-13T11:03:55;27.70;77.10
23251;DHT22;11794;49.730;10.088;2023-07-13T11:16:32;30.50;70.80
23251;DHT22;11794;49.730;10.088;2023-07-13T11:21:28;30.90;69.10
23251;DHT22;11794;49.730;10.088;2023-07-13T11:24:03;31.50;69.70
23251;DHT22;11794;49.730;10.088;2023-07-13T11:31:59;32.80;65.40
23251;DHT22;11794;49.730;10.088;2023-07-13T11:34:33;32.30;66.60
23251;DHT22;11794;49.730;10.088;2023-07-13T11:37:01;31.50;66.90
23251;DHT22;11794;49.730;10.088;2023-07-13T11:39:35;31.40;68.10
23251;DHT22;11794;49.730;10.088;2023-07-13T11:42:12;31.70;66.90
23251;DHT22;11794;49.730;10.088;2023-07-13T11:44:43;31.70;66.20
23251;DHT22;11794;49.730;10.088;2023-07-13T11:47:11;30.80;66.00
23251;DHT22;11794;49.730;10.088;2023-07-13T11:49:45;29.80;67.90
23251;DHT22;11794;49.730;10.088;2023-07-13T11:52:25;29.50;68.10
23251;DHT22;11794;49.730;10.088;2023-07-13T11:54:55;29.00;68.40
23251;DHT22;11794;49.730;10.088;2023-07-13T11:57:26;28.80;68.80
23251;DHT22;11794;49.730;10.088;2023-07-13T11:59:54;28.70;70.60
23251;DHT22;11794;49.730;10.088;2023-07-13T12:02:29;28.40;69.80
23251;DHT22;11794;49.730;10.088;2023-07-13T12:04:56;28.40;72.30
23251;DHT22;11794;49.730;10.088;2023-07-13T12:07:22;29.00;71.30
23251;DHT22;11794;49.730;10.088;2023-07-13T12:09:48;29.60;70.40
23251;DHT22;11794;49.730;10.088;2023-07-13T12:12:21;30.00;68.50
23251;DHT22;11794;49.730;10.088;2023-07-13T12:14:51;29.60;67.30
23251;DHT22;11794;49.730;10.088;2023-07-13T12:17:22;28.80;70.30
23251;DHT22;11794;49.730;10.088;2023-07-13T12:19:49;29.10;70.70
23251;DHT22;11794;49.730;10.088;2023-07-13T12:22:18;29.40;69.70
23251;DHT22;11794;49.730;10.088;2023-07-13T12:24:45;29.40;68.60
23251;DHT22;11794;49.730;10.088;2023-07-13T12:27:29;30.10;71.20
23251;DHT22;11794;49.730;10.088;2023-07-13T12:30:00;31.20;65.90
23251;DHT22;11794;49.730;10.088;2023-07-13T12:32:27;31.70;65.70
23251;DHT22;11794;49.730;10.088;2023-07-13T12:34:55;31.90;66.90
23251;DHT22;11794;49.730;10.088;2023-07-13T12:37:22;31.70;64.90
23251;DHT22;11794;49.730;10.088;2023-07-13T12:39:48;31.60;64.70
23251;DHT22;11794;49.730;10.088;2023-07-13T12:42:23;30.70;65.10
23251;DHT22;11794;49.730;10.088;2023-07-13T12:44:52;30.10;68.50
23251;DHT22;11794;49.730;10.088;2023-07-13T12:47:20;30.00;67.90
23251;DHT22;11794;49.730;10.088;2023-07-13T12:49:54;29.90;68.10
23251;DHT22;11794;49.730;10.088;2023-07-13T12:52:28;30.70;68.40
23251;DHT22;11794;49.730;10.088;2023-07-13T12:55:19;31.60;67.00
23251;DHT22;11794;49.730;10.088;2023-07-13T12:57:53;31.30;66.10
23251;DHT22;11794;49.730;10.088;2023-07-13T13:00:25;31.30;68.00
23251;DHT22;11794;49.730;10.088;2023-07-13T13:02:54;31.30;67.00
23251;DHT22;11794;49.730;10.088;2023-07-13T13:05:21;31.00;68.20
23251;DHT22;11794;49.730;10.088;2023-07-13T13:07:49;31.10;67.50
23251;DHT22;11794;49.730;10.088;2023-07-13T13:10:15;31.40;66.70
23251;DHT22;11794;49.730;10.088;2023-07-13T13:12:41;31.10;67.00
23251;DHT22;11794;49.730;10.088;2023-07-13T13:15:08;31.90;68.20
23251;DHT22;11794;49.730;10.088;2023-07-13T13:17:34;31.10;66.80
23251;DHT22;11794;49.730;10.088;2023-07-13T13:20:00;30.50;68.20
23251;DHT22;11794;49.730;10.088;2023-07-13T13:22:26;30.30;69.90
23251;DHT22;11794;49.730;10.088;2023-07-13T13:24:51;30.30;68.00
23251;DHT22;11794;49.730;10.088;2023-07-13T13:27:18;31.70;70.30
23251;DHT22;11794;49.730;10.088;2023-07-13T13:29:46;33.00;66.40
23251;DHT22;11794;49.730;10.088;2023-07-13T13:32:13;33.10;64.50
23251;DHT22;11794;49.730;10.088;2023-07-13T13:34:39;32.70;65.60
23251;DHT22;11794;49.730;10.088;2023-07-13T13:37:18;32.00;66.90
23251;DHT22;11794;49.730;10.088;2023-07-13T13:39:45;31.30;67.30
23251;DHT22;11794;49.730;10.088;2023-07-13T13:42:11;30.60;66.30
23251;DHT22;11794;49.730;10.088;2023-07-13T13:44:36;29.90;67.40
23251;DHT22;11794;49.730;10.088;2023-07-13T13:47:02;29.60;68.10
23251;DHT22;11794;49.730;10.088;2023-07-13T13:49:30;29.20;69.80
23251;DHT22;11794;49.730;10.088;2023-07-13T13:51:56;28.90;69.40
23251;DHT22;11794;49.730;10.088;2023-07-13T13:54:23;28.70;70.80
23251;DHT22;11794;49.730;10.088;2023-07-13T13:56:50;28.60;71.70
23251;DHT22;11794;49.730;10.088;2023-07-13T13:59:17;28.70;70.30
23251;DHT22;11794;49.730;10.088;2023-07-13T14:01:44;28.60;72.00
23251;DHT22;11794;49.730;10.088;2023-07-13T14:04:16;28.50;71.60
23251;DHT22;11794;49.730;10.088;2023-07-13T14:06:43;28.40;72.10
23251;DHT22;11794;49.730;10.088;2023-07-13T14:09:11;28.40;71.70
23251;DHT22;11794;49.730;10.088;2023-07-13T14:11:39;28.30;70.40
23251;DHT22;11794;49.730;10.088;2023-07-13T14:14:14;28.30;72.00
23251;DHT22;11794;49.730;10.088;2023-07-13T14:16:41;28.20;70.70
23251;DHT22;11794;49.730;10.088;2023-07-13T14:19:11;28.30;71.80
23251;DHT22;11794;49.730;10.088;2023-07-13T14:21:37;28.30;69.50
23251;DHT22;11794;49.730;10.088;2023-07-13T14:24:03;28.50;70.60
23251;DHT22;11794;49.730;10.088;2023-07-13T14:26:32;28.70;70.10
23251;DHT22;11794;49.730;10.088;2023-07-13T14:29:00;28.30;68.10
23251;DHT22;11794;49.730;10.088;2023-07-13T14:31:27;28.20;69.60
23251;DHT22;11794;49.730;10.088;2023-07-13T14:33:54;28.40;70.50
23251;DHT22;11794;49.730;10.088;2023-07-13T14:36:32;28.60;71.00
23251;DHT22;11794;49.730;10.088;2023-07-13T14:39:00;28.40;69.50
23251;DHT22;11794;49.730;10.088;2023-07-13T14:41:26;28.30;71.20
23251;DHT22;11794;49.730;10.088;2023-07-13T14:43:52;28.00;68.00
23251;DHT22;11794;49.730;10.088;2023-07-13T14:46:29;27.80;70.30
23251;DHT22;11794;49.730;10.088;2023-07-13T14:49:05;27.80;72.00
23251;DHT22;11794;49.730;10.088;2023-07-13T14:51:31;27.70;71.40
23251;DHT22;11794;49.730;10.088;2023-07-13T14:54:02;27.80;71.90
23251;DHT22;11794;49.730;10.088;2023-07-13T14:56:28;27.80;72.00
23251;DHT22;11794;49.730;10.088;2023-07-13T14:58:54;27.90;71.60
23251;DHT22;11794;49.730;10.088;2023-07-13T15:01:20;28.20;71.80
23251;DHT22;11794;49.730;10.088;2023-07-13T15:03:48;28.20;71.50
23251;DHT22;11794;49.730;10.088;2023-07-13T15:06:15;28.20;71.70
23251;DHT22;11794;49.730;10.088;2023-07-13T15:08:41;28.20;71.50
23251;DHT22;11794;49.730;10.088;2023-07-13T15:11:07;28.20;71.00
23251;DHT22;11794;49.730;10.088;2023-07-13T15:13:33;27.90;70.70
23251;DHT22;11794;49.730;10.088;2023-07-13T15:16:00;27.70;70.50
23251;DHT22;11794;49.730;10.088;2023-07-13T15:18:26;27.80;70.60
23251;DHT22;11794;49.730;10.088;2023-07-13T15:20:53;27.90;70.10
23251;DHT22;11794;49.730;10.088;2023-07-13T15:23:20;27.70;70.30
23251;DHT22;11794;49.730;10.088;2023-07-13T15:25:46;27.30;70.50
23251;DHT22;11794;49.730;10.088;2023-07-13T15:28:11;26.90;72.20
23251;DHT22;11794;49.730;10.088;2023-07-13T15:30:44;26.90;71.60
23251;DHT22;11794;49.730;10.088;2023-07-13T15:33:17;27.20;70.80
23251;DHT22;11794;49.730;10.088;2023-07-13T15:35:45;27.40;71.50
23251;DHT22;11794;49.730;10.088;2023-07-13T15:40:42;27.80;71.40
23251;DHT22;11794;49.730;10.088;2023-07-13T15:43:14;27.70;70.90
23251;DHT22;11794;49.730;10.088;2023-07-13T15:45:40;27.60;71.50
23251;DHT22;11794;49.730;10.088;2023-07-13T15:48:16;27.60;71.60
23251;DHT22;11794;49.730;10.088;2023-07-13T15:50:45;27.40;72.10
23251;DHT22;11794;49.730;10.088;2023-07-13T15:53:21;27.40;69.70